sensor_id;sensor_type;location;lat;lon;timestamp;pressure;altitude;pressure_sealevel;temperature;humidity
84024;BME280;74109;45.636;25.582;2024-02-16T00:00:56;95377.53;;;3.65;68.30
84024;BME280;74109;45.636;25.582;2024-02-16T00:03:48;95384.80;;;3.68;68.06
84024;BME280;74109;45.636;25.582;2024-02-16T00:06:29;95386.38;;;3.69;67.84
84024;BME280;74109;45.636;25.582;2024-02-16T00:09:17;95389.70;;;3.70;67.65
84024;BME280;74109;45.636;25.582;2024-02-16T00:15:17;95391.91;;;3.77;67.66
84024;BME280;74109;45.636;25.582;2024-02-16T00:18:15;95392.84;;;3.83;67.88
84024;BME280;74109;45.636;25.582;2024-02-16T00:20:50;95393.88;;;3.85;67.78
84024;BME280;74109;45.636;25.582;2024-02-16T00:23:17;95392.48;;;3.89;67.57
84024;BME280;74109;45.636;25.582;2024-02-16T00:28:53;95392.66;;;3.94;67.28
84024;BME280;74109;45.636;25.582;2024-02-16T00:31:29;95395.19;;;3.94;67.35
84024;BME280;74109;45.636;25.582;2024-02-16T00:34:05;95397.20;;;3.94;67.31
84024;BME280;74109;45.636;25.582;2024-02-16T00:40:22;95390.13;;;3.93;67.21
84024;BME280;74109;45.636;25.582;2024-02-16T00:43:10;95385.51;;;3.92;67.19
84024;BME280;74109;45.636;25.582;2024-02-16T00:46:13;95383.88;;;3.91;67.31
84024;BME280;74109;45.636;25.582;2024-02-16T00:48:43;95383.96;;;3.90;67.61
84024;BME280;74109;45.636;25.582;2024-02-16T00:52:07;95380.88;;;3.89;67.67
84024;BME280;74109;45.636;25.582;2024-02-16T00:55:43;95376.31;;;3.90;67.66
84024;BME280;74109;45.636;25.582;2024-02-16T01:02:02;95379.89;;;3.90;67.98
84024;BME280;74109;45.636;25.582;2024-02-16T01:05:22;95374.84;;;3.87;67.83
84024;BME280;74109;45.636;25.582;2024-02-16T01:08:29;95379.36;;;3.85;67.92
84024;BME280;74109;45.636;25.582;2024-02-16T01:17:57;95378.66;;;3.71;67.50
84024;BME280;74109;45.636;25.582;2024-02-16T01:21:07;95376.10;;;3.66;67.26
84024;BME280;74109;45.636;25.582;2024-02-16T01:23:50;95374.73;;;3.60;67.38
84024;BME280;74109;45.636;25.582;2024-02-16T01:26:47;95377.55;;;3.55;67.31
84024;BME280;74109;45.636;25.582;2024-02-16T01:41:08;95372.58;;;3.31;68.08
84024;BME280;74109;45.636;25.582;2024-02-16T01:48:58;95371.02;;;3.24;68.05
84024;BME280;74109;45.636;25.582;2024-02-16T02:12:51;95369.08;;;2.96;68.51
84024;BME280;74109;45.636;25.582;2024-02-16T02:27:37;95370.05;;;2.89;68.67
84024;BME280;74109;45.636;25.582;2024-02-16T02:34:07;95375.94;;;2.75;68.71
84024;BME280;74109;45.636;25.582;2024-02-16T02:36:55;95377.38;;;2.68;68.55
84024;BME280;74109;45.636;25.582;2024-02-16T02:53:18;95377.25;;;2.29;68.25
84024;BME280;74109;45.636;25.582;2024-02-16T02:55:57;95372.38;;;2.26;68.72
84024;BME280;74109;45.636;25.582;2024-02-16T02:58:57;95374.66;;;2.20;68.82
84024;BME280;74109;45.636;25.582;2024-02-16T03:02:04;95370.98;;;2.16;68.82
84024;BME280;74109;45.636;25.582;2024-02-16T03:05:43;95364.22;;;2.13;68.95
84024;BME280;74109;45.636;25.582;2024-02-16T03:08:33;95363.78;;;2.02;69.38
84024;BME280;74109;45.636;25.582;2024-02-16T03:15:23;95359.88;;;1.79;70.02
84024;BME280;74109;45.636;25.582;2024-02-16T03:25:50;95358.84;;;1.62;70.60
84024;BME280;74109;45.636;25.582;2024-02-16T03:28:35;95356.42;;;1.61;71.18
84024;BME280;74109;45.636;25.582;2024-02-16T03:34:42;95355.65;;;1.68;70.59
84024;BME280;74109;45.636;25.582;2024-02-16T03:37:55;95356.48;;;1.71;70.41
84024;BME280;74109;45.636;25.582;2024-02-16T03:43:36;95359.99;;;1.67;70.31
84024;BME280;74109;45.636;25.582;2024-02-16T03:49:42;95362.23;;;1.58;71.39
84024;BME280;74109;45.636;25.582;2024-02-16T03:52:09;95366.24;;;1.50;70.98
84024;BME280;74109;45.636;25.582;2024-02-16T03:55:18;95363.30;;;1.47;70.20
84024;BME280;74109;45.636;25.582;2024-02-16T03:58:01;95366.14;;;1.51;70.45
84024;BME280;74109;45.636;25.582;2024-02-16T04:01:03;95369.85;;;1.49;71.89
84024;BME280;74109;45.636;25.582;2024-02-16T04:04:02;95376.09;;;1.46;71.54
84024;BME280;74109;45.636;25.582;2024-02-16T04:06:48;95376.71;;;1.42;71.35
84024;BME280;74109;45.636;25.582;2024-02-16T04:09:42;95375.89;;;1.42;71.23
84024;BME280;74109;45.636;25.582;2024-02-16T04:12:55;95378.41;;;1.40;71.19
84024;BME280;74109;45.636;25.582;2024-02-16T04:15:54;95375.50;;;1.38;70.76
84024;BME280;74109;45.636;25.582;2024-02-16T04:22:32;95375.23;;;1.23;71.66
84024;BME280;74109;45.636;25.582;2024-02-16T04:32:21;95363.56;;;1.21;71.30
84024;BME280;74109;45.636;25.582;2024-02-16T04:35:28;95362.98;;;1.19;71.67
84024;BME280;74109;45.636;25.582;2024-02-16T04:42:07;95361.91;;;1.12;71.75
84024;BME280;74109;45.636;25.582;2024-02-16T04:52:35;95363.34;;;1.08;71.03
84024;BME280;74109;45.636;25.582;2024-02-16T04:55:25;95371.33;;;1.07;71.49
84024;BME280;74109;45.636;25.582;2024-02-16T05:01:54;95367.17;;;0.96;71.41
84024;BME280;74109;45.636;25.582;2024-02-16T05:05:07;95367.14;;;0.93;71.47
84024;BME280;74109;45.636;25.582;2024-02-16T05:08:11;95369.89;;;0.86;71.98
84024;BME280;74109;45.636;25.582;2024-02-16T05:11:15;95376.20;;;0.81;72.07
84024;BME280;74109;45.636;25.582;2024-02-16T05:21:04;95376.64;;;0.76;71.43
84024;BME280;74109;45.636;25.582;2024-02-16T05:27:41;95381.35;;;0.81;72.43
84024;BME280;74109;45.636;25.582;2024-02-16T05:53:29;95394.93;;;1.00;71.50
84024;BME280;74109;45.636;25.582;2024-02-16T06:24:58;95408.34;;;1.27;71.51
84024;BME280;74109;45.636;25.582;2024-02-16T06:29:49;95412.29;;;1.36;71.55
84024;BME280;74109;45.636;25.582;2024-02-16T06:37:16;95417.08;;;1.36;71.01
84024;BME280;74109;45.636;25.582;2024-02-16T06:41:20;95422.97;;;1.34;71.38
84024;BME280;74109;45.636;25.582;2024-02-16T06:44:19;95427.80;;;1.36;71.42
84024;BME280;74109;45.636;25.582;2024-02-16T06:47:13;95427.80;;;1.39;70.85
84024;BME280;74109;45.636;25.582;2024-02-16T06:54:55;95435.59;;;1.58;75.25
84024;BME280;74109;45.636;25.582;2024-02-16T06:58:44;95441.00;;;2.02;74.19
84024;BME280;74109;45.636;25.582;2024-02-16T07:13:18;95442.75;;;1.98;71.03
84024;BME280;74109;45.636;25.582;2024-02-16T07:40:59;95443.67;;;7.94;53.33
84024;BME280;74109;45.636;25.582;2024-02-16T07:48:28;95433.42;;;10.67;46.18
84024;BME280;74109;45.636;25.582;2024-02-16T08:05:06;95434.45;;;12.22;42.36
84024;BME280;74109;45.636;25.582;2024-02-16T08:08:10;95440.33;;;12.79;41.48
84024;BME280;74109;45.636;25.582;2024-02-16T08:17:41;95440.60;;;13.51;39.51
84024;BME280;74109;45.636;25.582;2024-02-16T08:30:22;95443.95;;;13.60;39.32
84024;BME280;74109;45.636;25.582;2024-02-16T08:33:34;95446.02;;;13.70;39.22
84024;BME280;74109;45.636;25.582;2024-02-16T08:36:21;95449.40;;;13.69;38.95
84024;BME280;74109;45.636;25.582;2024-02-16T08:43:13;95450.29;;;13.83;39.22
84024;BME280;74109;45.636;25.582;2024-02-16T08:45:58;95452.35;;;13.87;39.20
84024;BME280;74109;45.636;25.582;2024-02-16T08:48:29;95449.86;;;13.75;38.38
84024;BME280;74109;45.636;25.582;2024-02-16T08:51:26;95455.02;;;14.03;43.26
84024;BME280;74109;45.636;25.582;2024-02-16T08:54:10;95448.77;;;15.43;42.29
84024;BME280;74109;45.636;25.582;2024-02-16T08:57:06;95444.17;;;16.08;35.17
84024;BME280;74109;45.636;25.582;2024-02-16T09:00:05;95443.47;;;15.78;36.12
84024;BME280;74109;45.636;25.582;2024-02-16T09:03:29;95440.48;;;15.16;36.54
84024;BME280;74109;45.636;25.582;2024-02-16T09:07:47;95441.30;;;14.74;36.67
84024;BME280;74109;45.636;25.582;2024-02-16T09:15:54;95443.30;;;14.32;37.99
84024;BME280;74109;45.636;25.582;2024-02-16T09:23:55;95437.83;;;14.20;38.30
84024;BME280;74109;45.636;25.582;2024-02-16T10:36:52;95402.60;;;13.23;39.06
84024;BME280;74109;45.636;25.582;2024-02-16T10:40:10;95398.77;;;13.31;39.02
84024;BME280;74109;45.636;25.582;2024-02-16T10:46:49;95387.30;;;13.18;38.98
84024;BME280;74109;45.636;25.582;2024-02-16T10:56:57;95369.23;;;13.11;39.05
84024;BME280;74109;45.636;25.582;2024-02-16T11:00:00;95369.02;;;13.21;39.91
84024;BME280;74109;45.636;25.582;2024-02-16T11:03:15;95366.21;;;13.35;38.79
84024;BME280;74109;45.636;25.582;2024-02-16T11:06:28;95362.91;;;13.38;38.18
84024;BME280;74109;45.636;25.582;2024-02-16T11:09:01;95358.38;;;13.43;38.31
84024;BME280;74109;45.636;25.582;2024-02-16T11:11:54;95348.64;;;13.38;38.21
84024;BME280;74109;45.636;25.582;2024-02-16T11:15:10;95343.25;;;13.34;38.28
84024;BME280;74109;45.636;25.582;2024-02-16T11:18:13;95338.75;;;13.37;38.67
84024;BME280;74109;45.636;25.582;2024-02-16T11:21:17;95341.40;;;13.35;38.92
84024;BME280;74109;45.636;25.582;2024-02-16T11:24:35;95336.43;;;13.40;39.32
84024;BME280;74109;45.636;25.582;2024-02-16T11:27:35;95336.54;;;13.48;39.33
84024;BME280;74109;45.636;25.582;2024-02-16T11:30:18;95333.84;;;13.44;39.26
84024;BME280;74109;45.636;25.582;2024-02-16T11:32:56;95338.25;;;13.48;39.45
84024;BME280;74109;45.636;25.582;2024-02-16T11:35:33;95330.80;;;13.49;39.10
84024;BME280;74109;45.636;25.582;2024-02-16T11:38:01;95328.05;;;13.48;39.60
84024;BME280;74109;45.636;25.582;2024-02-16T11:41:01;95326.49;;;13.50;39.53
84024;BME280;74109;45.636;25.582;2024-02-16T11:43:38;95326.04;;;13.51;39.38
84024;BME280;74109;45.636;25.582;2024-02-16T11:46:13;95326.74;;;13.56;39.46
84024;BME280;74109;45.636;25.582;2024-02-16T11:48:50;95325.52;;;13.58;39.49
84024;BME280;74109;45.636;25.582;2024-02-16T11:51:36;95319.63;;;13.43;39.88
84024;BME280;74109;45.636;25.582;2024-02-16T11:54:24;95319.91;;;13.39;40.05
84024;BME280;74109;45.636;25.582;2024-02-16T11:57:13;95319.92;;;13.40;39.82
84024;BME280;74109;45.636;25.582;2024-02-16T11:59:48;95315.68;;;13.44;40.60
84024;BME280;74109;45.636;25.582;2024-02-16T12:02:39;95313.20;;;13.47;40.29
84024;BME280;74109;45.636;25.582;2024-02-16T12:05:27;95313.42;;;13.49;40.13
84024;BME280;74109;45.636;25.582;2024-02-16T12:08:18;95309.99;;;13.50;40.24
84024;BME280;74109;45.636;25.582;2024-02-16T12:11:01;95309.44;;;13.47;40.62
84024;BME280;74109;45.636;25.582;2024-02-16T12:13:47;95310.71;;;13.50;40.27
84024;BME280;74109;45.636;25.582;2024-02-16T12:16:25;95309.52;;;13.48;40.63
84024;BME280;74109;45.636;25.582;2024-02-16T12:19:04;95311.16;;;13.54;40.73
84024;BME280;74109;45.636;25.582;2024-02-16T12:21:43;95306.14;;;13.57;40.82
84024;BME280;74109;45.636;25.582;2024-02-16T12:24:12;95308.48;;;13.58;41.27
84024;BME280;74109;45.636;25.582;2024-02-16T12:26:39;95307.05;;;13.63;41.42
84024;BME280;74109;45.636;25.582;2024-02-16T12:29:12;95304.98;;;13.56;41.26
84024;BME280;74109;45.636;25.582;2024-02-16T12:32:10;95303.90;;;13.50;41.65
84024;BME280;74109;45.636;25.582;2024-02-16T12:34:37;95300.21;;;13.51;41.79
84024;BME280;74109;45.636;25.582;2024-02-16T12:37:26;95296.24;;;13.49;41.55
84024;BME280;74109;45.636;25.582;2024-02-16T12:40:03;95292.90;;;13.40;41.76
84024;BME280;74109;45.636;25.582;2024-02-16T12:42:47;95294.14;;;13.32;41.62
84024;BME280;74109;45.636;25.582;2024-02-16T12:48:21;95285.51;;;13.11;41.75
84024;BME280;74109;45.636;25.582;2024-02-16T12:50:48;95286.96;;;13.05;42.37
84024;BME280;74109;45.636;25.582;2024-02-16T12:53:16;95284.30;;;13.09;42.58
84024;BME280;74109;45.636;25.582;2024-02-16T12:55:47;95285.16;;;13.07;42.54
84024;BME280;74109;45.636;25.582;2024-02-16T12:58:14;95286.55;;;13.05;42.76
84024;BME280;74109;45.636;25.582;2024-02-16T13:00:41;95286.58;;;13.09;42.70
84024;BME280;74109;45.636;25.582;2024-02-16T13:03:14;95288.01;;;13.12;43.03
84024;BME280;74109;45.636;25.582;2024-02-16T13:05:48;95289.11;;;13.12;43.15
84024;BME280;74109;45.636;25.582;2024-02-16T13:08:24;95290.42;;;13.15;42.54
84024;BME280;74109;45.636;25.582;2024-02-16T13:13:35;95288.67;;;13.05;43.32
84024;BME280;74109;45.636;25.582;2024-02-16T13:16:28;95289.86;;;13.03;43.21
84024;BME280;74109;45.636;25.582;2024-02-16T13:19:20;95296.69;;;13.00;43.38
84024;BME280;74109;45.636;25.582;2024-02-16T13:21:47;95296.54;;;13.01;43.57
84024;BME280;74109;45.636;25.582;2024-02-16T13:24:32;95291.73;;;12.98;43.54
84024;BME280;74109;45.636;25.582;2024-02-16T13:27:06;95296.19;;;12.98;43.54
84024;BME280;74109;45.636;25.582;2024-02-16T13:29:48;95298.90;;;12.87;43.56
84024;BME280;74109;45.636;25.582;2024-02-16T13:32:19;95296.39;;;12.73;44.06
84024;BME280;74109;45.636;25.582;2024-02-16T13:34:48;95299.65;;;12.61;44.19
84024;BME280;74109;45.636;25.582;2024-02-16T13:37:35;95297.89;;;12.52;44.42
84024;BME280;74109;45.636;25.582;2024-02-16T13:40:26;95298.55;;;12.51;44.59
84024;BME280;74109;45.636;25.582;2024-02-16T13:46:09;95300.26;;;12.39;45.02
84024;BME280;74109;45.636;25.582;2024-02-16T13:49:08;95296.77;;;12.34;44.88
84024;BME280;74109;45.636;25.582;2024-02-16T13:52:16;95296.16;;;12.25;45.50
84024;BME280;74109;45.636;25.582;2024-02-16T13:55:22;95295.34;;;12.17;45.46
84024;BME280;74109;45.636;25.582;2024-02-16T13:58:08;95295.54;;;12.08;45.96
84024;BME280;74109;45.636;25.582;2024-02-16T14:00:42;95296.98;;;11.98;46.05
84024;BME280;74109;45.636;25.582;2024-02-16T14:03:20;95294.70;;;11.86;46.25
84024;BME280;74109;45.636;25.582;2024-02-16T14:06:02;95297.10;;;11.75;46.24
84024;BME280;74109;45.636;25.582;2024-02-16T14:08:36;95295.89;;;11.63;46.72
84024;BME280;74109;45.636;25.582;2024-02-16T14:11:06;95299.27;;;11.53;47.10
84024;BME280;74109;45.636;25.582;2024-02-16T14:13:40;95298.09;;;11.43;47.12
84024;BME280;74109;45.636;25.582;2024-02-16T14:16:07;95297.88;;;11.32;47.25
84024;BME280;74109;45.636;25.582;2024-02-16T14:18:37;95301.09;;;11.21;47.62
84024;BME280;74109;45.636;25.582;2024-02-16T14:21:04;95298.37;;;11.16;47.78
84024;BME280;74109;45.636;25.582;2024-02-16T14:23:37;95301.45;;;11.07;47.91
84024;BME280;74109;45.636;25.582;2024-02-16T14:26:04;95299.06;;;10.94;48.01
84024;BME280;74109;45.636;25.582;2024-02-16T14:28:51;95302.65;;;10.86;48.18
84024;BME280;74109;45.636;25.582;2024-02-16T14:31:58;95303.17;;;10.77;48.19
84024;BME280;74109;45.636;25.582;2024-02-16T14:37:50;95307.73;;;10.62;48.48
84024;BME280;74109;45.636;25.582;2024-02-16T14:40:20;95308.24;;;10.55;48.57
84024;BME280;74109;45.636;25.582;2024-02-16T14:43:00;95312.77;;;10.51;48.50
84024;BME280;74109;45.636;25.582;2024-02-16T14:46:15;95313.79;;;10.44;49.71
84024;BME280;74109;45.636;25.582;2024-02-16T14:49:04;95316.49;;;10.33;50.59
84024;BME280;74109;45.636;25.582;2024-02-16T14:52:04;95320.27;;;10.14;51.69
84024;BME280;74109;45.636;25.582;2024-02-16T14:58:07;95321.26;;;9.73;52.87
84024;BME280;74109;45.636;25.582;2024-02-16T15:01:37;95321.77;;;9.44;54.36
84024;BME280;74109;45.636;25.582;2024-02-16T15:05:05;95323.02;;;9.18;54.50
84024;BME280;74109;45.636;25.582;2024-02-16T15:07:42;95328.14;;;8.91;56.12
84024;BME280;74109;45.636;25.582;2024-02-16T15:10:27;95330.95;;;8.73;56.10
84024;BME280;74109;45.636;25.582;2024-02-16T15:13:35;95333.42;;;8.51;56.88
84024;BME280;74109;45.636;25.582;2024-02-16T15:16:27;95337.74;;;8.35;57.82
84024;BME280;74109;45.636;25.582;2024-02-16T15:19:17;95335.42;;;8.15;58.46
84024;BME280;74109;45.636;25.582;2024-02-16T15:22:04;95334.89;;;7.96;59.00
84024;BME280;74109;45.636;25.582;2024-02-16T15:25:32;95335.34;;;7.79;59.85
84024;BME280;74109;45.636;25.582;2024-02-16T15:28:09;95336.82;;;7.64;60.35
84024;BME280;74109;45.636;25.582;2024-02-16T15:30:58;95339.40;;;7.48;61.39
84024;BME280;74109;45.636;25.582;2024-02-16T15:33:35;95344.11;;;7.32;61.97
84024;BME280;74109;45.636;25.582;2024-02-16T15:36:37;95343.36;;;7.13;62.59
84024;BME280;74109;45.636;25.582;2024-02-16T15:39:47;95345.82;;;6.98;63.14
84024;BME280;74109;45.636;25.582;2024-02-16T15:43:24;95347.65;;;6.83;62.63
84024;BME280;74109;45.636;25.582;2024-02-16T15:52:40;95350.90;;;6.46;63.82
84024;BME280;74109;45.636;25.582;2024-02-16T15:55:34;95351.73;;;6.37;65.19
84024;BME280;74109;45.636;25.582;2024-02-16T16:01:28;95359.77;;;6.21;65.45
84024;BME280;74109;45.636;25.582;2024-02-16T16:04:04;95359.45;;;6.13;65.28
84024;BME280;74109;45.636;25.582;2024-02-16T16:06:41;95361.70;;;6.07;64.86
84024;BME280;74109;45.636;25.582;2024-02-16T16:13:12;95365.70;;;5.92;66.58
84024;BME280;74109;45.636;25.582;2024-02-16T16:16:00;95363.73;;;5.81;66.99
84024;BME280;74109;45.636;25.582;2024-02-16T16:19:02;95364.05;;;5.75;66.62
84024;BME280;74109;45.636;25.582;2024-02-16T16:22:02;95367.73;;;5.71;66.40
84024;BME280;74109;45.636;25.582;2024-02-16T16:35:21;95376.13;;;5.45;67.94
84024;BME280;74109;45.636;25.582;2024-02-16T16:40:55;95382.58;;;5.29;68.42
84024;BME280;74109;45.636;25.582;2024-02-16T16:49:41;95390.09;;;5.22;68.57
84024;BME280;74109;45.636;25.582;2024-02-16T16:52:22;95400.01;;;5.19;68.72
84024;BME280;74109;45.636;25.582;2024-02-16T16:55:20;95401.60;;;5.14;68.38
84024;BME280;74109;45.636;25.582;2024-02-16T17:05:37;95411.70;;;4.95;69.28
84024;BME280;74109;45.636;25.582;2024-02-16T17:12:05;95411.95;;;4.86;69.51
84024;BME280;74109;45.636;25.582;2024-02-16T17:15:04;95414.75;;;4.85;68.93
84024;BME280;74109;45.636;25.582;2024-02-16T17:17:38;95417.05;;;4.82;69.32
84024;BME280;74109;45.636;25.582;2024-02-16T17:20:21;95415.89;;;4.80;68.59
84024;BME280;74109;45.636;25.582;2024-02-16T17:26:28;95414.60;;;4.72;69.12
84024;BME280;74109;45.636;25.582;2024-02-16T17:29:16;95415.71;;;4.71;69.57
84024;BME280;74109;45.636;25.582;2024-02-16T17:33:15;95417.22;;;4.73;68.80
84024;BME280;74109;45.636;25.582;2024-02-16T17:36:01;95417.22;;;4.71;69.80
84024;BME280;74109;45.636;25.582;2024-02-16T17:51:53;95419.66;;;4.46;71.26
84024;BME280;74109;45.636;25.582;2024-02-16T17:59:07;95422.45;;;4.42;70.57
84024;BME280;74109;45.636;25.582;2024-02-16T18:02:11;95425.58;;;4.41;70.41
84024;BME280;74109;45.636;25.582;2024-02-16T18:05:33;95429.46;;;4.36;71.00
84024;BME280;74109;45.636;25.582;2024-02-16T18:08:09;95429.20;;;4.30;71.42
84024;BME280;74109;45.636;25.582;2024-02-16T18:10:36;95420.41;;;4.24;71.95
84024;BME280;74109;45.636;25.582;2024-02-16T18:13:26;95422.54;;;4.22;71.73
84024;BME280;74109;45.636;25.582;2024-02-16T18:20:47;95420.52;;;4.19;71.71
84024;BME280;74109;45.636;25.582;2024-02-16T18:23:59;95420.84;;;4.15;71.55
84024;BME280;74109;45.636;25.582;2024-02-16T18:27:23;95423.59;;;4.11;71.49
84024;BME280;74109;45.636;25.582;2024-02-16T18:45:38;95427.17;;;4.18;70.77
84024;BME280;74109;45.636;25.582;2024-02-16T18:48:05;95428.50;;;4.14;71.59
84024;BME280;74109;45.636;25.582;2024-02-16T18:57:35;95425.64;;;4.04;71.93
84024;BME280;74109;45.636;25.582;2024-02-16T19:04:12;95427.98;;;3.98;72.01
84024;BME280;74109;45.636;25.582;2024-02-16T19:21:28;95435.28;;;3.85;72.68
84024;BME280;74109;45.636;25.582;2024-02-16T19:41:34;95436.79;;;3.79;71.77
84024;BME280;74109;45.636;25.582;2024-02-16T19:44:10;95435.64;;;3.77;71.96
84024;BME280;74109;45.636;25.582;2024-02-16T19:47:51;95437.11;;;3.75;72.03
84024;BME280;74109;45.636;25.582;2024-02-16T19:58:06;95436.25;;;3.75;71.95
84024;BME280;74109;45.636;25.582;2024-02-16T20:15:22;95433.73;;;3.58;71.94
84024;BME280;74109;45.636;25.582;2024-02-16T20:39:30;95443.30;;;3.37;72.72
84024;BME280;74109;45.636;25.582;2024-02-16T21:19:02;95451.01;;;3.21;72.61
84024;BME280;74109;45.636;25.582;2024-02-16T21:21:50;95447.34;;;3.20;72.02
84024;BME280;74109;45.636;25.582;2024-02-16T21:24:50;95441.71;;;3.19;72.28
84024;BME280;74109;45.636;25.582;2024-02-16T21:31:37;95440.08;;;3.14;72.62
84024;BME280;74109;45.636;25.582;2024-02-16T21:38:52;95437.05;;;3.22;72.24
84024;BME280;74109;45.636;25.582;2024-02-16T21:42:07;95443.67;;;3.25;71.97
84024;BME280;74109;45.636;25.582;2024-02-16T21:56:07;95447.59;;;3.08;72.39
84024;BME280;74109;45.636;25.582;2024-02-16T21:58:57;95449.82;;;3.02;71.75
84024;BME280;74109;45.636;25.582;2024-02-16T22:01:56;95456.24;;;2.95;71.89
84024;BME280;74109;45.636;25.582;2024-02-16T22:09:33;95462.31;;;2.82;71.98
84024;BME280;74109;45.636;25.582;2024-02-16T22:16:55;95461.30;;;2.80;72.09
84024;BME280;74109;45.636;25.582;2024-02-16T22:20:01;95464.09;;;2.79;72.06
84024;BME280;74109;45.636;25.582;2024-02-16T22:26:56;95465.00;;;2.76;72.13
84024;BME280;74109;45.636;25.582;2024-02-16T22:33:16;95467.95;;;2.69;71.26
84024;BME280;74109;45.636;25.582;2024-02-16T22:36:36;95465.69;;;2.70;71.81
84024;BME280;74109;45.636;25.582;2024-02-16T22:47:02;95471.20;;;2.70;71.78
84024;BME280;74109;45.636;25.582;2024-02-16T22:50:00;95475.27;;;2.65;71.93
84024;BME280;74109;45.636;25.582;2024-02-16T22:56:02;95474.94;;;2.57;71.90
84024;BME280;74109;45.636;25.582;2024-02-16T22:58:59;95476.15;;;2.57;71.91
84024;BME280;74109;45.636;25.582;2024-02-16T23:02:40;95482.53;;;2.53;71.76
84024;BME280;74109;45.636;25.582;2024-02-16T23:13:01;95495.08;;;2.55;71.56
84024;BME280;74109;45.636;25.582;2024-02-16T23:18:54;95493.16;;;2.47;71.50
84024;BME280;74109;45.636;25.582;2024-02-16T23:29:34;95490.52;;;2.36;71.61
84024;BME280;74109;45.636;25.582;2024-02-16T23:32:33;95491.04;;;2.34;71.39
84024;BME280;74109;45.636;25.582;2024-02-16T23:40:03;95485.51;;;2.35;71.42
84024;BME280;74109;45.636;25.582;2024-02-16T23:58:31;95491.48;;;2.13;72.21
